Tarleton, United Kingdom
Current Conditions -  °F | °C
As of 4:20 PM on Saturday 20 Dec 2014 (Local Time) from EGNO Reporting Station
Scattered Clouds Scattered Clouds  
Wind Chill:   Ceiling: Unl
Heat Index:   Visibility: 6mi
Dew Point:   Wind: 17mph
Humidity: 81%   Direction: 280°W
Pressure: 30.3"   Gusts: NA
Location:  53.68°N, 2.83°W
Report Text: EGNO 201620Z 28015KT 9999 FEW018 SCT040 08/05 Q1026
Loading
Personal Weather Stations






























Interactive Weather Map New forecast layout! Learn more

10-Day Weather Forecast

Advertisements
Track Severe Weather on mobile